Time;durP1;ratioP1;P1;durP2;ratioP2;P2;SDS_P1;SDS_P2;PMS_P1;PMS_P2;Temp;Humidity;BMP_temperature;BMP_pressure;BME280_temperature;BME280_humidity;BME280_pressure;Samples;Min_cycle;Max_cycle;Signal;HPM_P1;HPM_P2
2021/06/12 00:01:11;;;;;;;12.07;10.87;;;19.30;99.90;;;;;;5032881;28;20222;-67
2021/06/12 00:03:37;;;;;;;14.57;12.82;;;19.30;99.90;;;;;;5030259;28;20218;-66
2021/06/12 00:06:06;;;;;;;13.23;11.23;;;19.30;99.90;;;;;;5013153;28;20179;-67
2021/06/12 00:08:32;;;;;;;14.23;11.60;;;19.20;99.90;;;;;;5013245;28;20234;-66
2021/06/12 00:11:00;;;;;;;13.90;11.63;;;19.20;99.90;;;;;;5032493;28;20175;-66
2021/06/12 00:13:26;;;;;;;13.83;11.70;;;19.20;99.90;;;;;;5032658;28;20195;-66
2021/06/12 00:15:52;;;;;;;14.70;12.43;;;19.30;99.90;;;;;;5013540;28;20191;-67
2021/06/12 00:18:17;;;;;;;14.32;12.55;;;19.30;99.90;;;;;;5013037;28;20579;-66
2021/06/12 00:20:43;;;;;;;17.37;11.90;;;19.30;99.90;;;;;;5029393;28;20213;-66
2021/06/12 00:23:09;;;;;;;13.87;11.67;;;19.40;99.90;;;;;;5032525;28;20247;-66
2021/06/12 00:25:38;;;;;;;13.73;11.50;;;19.40;99.90;;;;;;5016740;28;20184;-66
2021/06/12 00:28:04;;;;;;;16.43;12.73;;;19.40;99.90;;;;;;5012835;28;20180;-67
2021/06/12 00:30:30;;;;;;;14.47;11.43;;;19.30;99.90;;;;;;5026477;28;20657;-66
2021/06/12 00:32:56;;;;;;;15.07;12.00;;;19.20;99.90;;;;;;5021798;28;20207;-66
2021/06/12 00:35:22;;;;;;;15.17;12.27;;;19.20;99.90;;;;;;5028731;28;20184;-66
2021/06/12 00:37:48;;;;;;;15.70;13.07;;;19.20;99.90;;;;;;5022510;28;20180;-66
2021/06/12 00:40:15;;;;;;;14.63;13.00;;;19.20;99.90;;;;;;5012318;28;20234;-66
2021/06/12 00:42:41;;;;;;;15.93;12.57;;;19.10;99.90;;;;;;5020083;28;20218;-66
2021/06/12 00:45:13;;;;;;;16.90;12.57;;;19.10;99.90;;;;;;5014656;28;20695;-66
2021/06/12 00:47:40;;;;;;;15.93;12.80;;;19.00;99.90;;;;;;5019696;28;20179;-66
2021/06/12 00:50:08;;;;;;;14.27;12.33;;;18.80;99.90;;;;;;5031884;28;20168;-66
2021/06/12 00:52:36;;;;;;;14.40;12.17;;;18.70;99.90;;;;;;5025003;28;20553;-66
2021/06/12 00:55:02;;;;;;;15.17;12.20;;;18.60;99.90;;;;;;5012327;28;20180;-66
2021/06/12 00:57:30;;;;;;;16.33;12.23;;;18.60;99.90;;;;;;5022975;28;20184;-66
2021/06/12 00:59:56;;;;;;;12.70;10.83;;;18.60;99.90;;;;;;5025812;28;20208;-66
2021/06/12 01:02:21;;;;;;;15.83;12.17;;;18.50;99.90;;;;;;5010888;28;20258;-66
2021/06/12 01:04:47;;;;;;;16.50;12.93;;;18.60;99.90;;;;;;5014584;28;20547;-66
2021/06/12 01:07:12;;;;;;;14.20;11.67;;;18.60;99.90;;;;;;5015448;28;20171;-66
2021/06/12 01:09:38;;;;;;;17.13;12.23;;;18.50;99.90;;;;;;5031773;28;20594;-66
2021/06/12 01:12:31;;;;;;;16.30;12.67;;;18.40;99.90;;;;;;5030157;28;20207;-66
2021/06/12 01:15:04;;;;;;;14.17;11.97;;;18.40;99.90;;;;;;5012043;28;20550;-66
2021/06/12 01:17:55;;;;;;;12.63;11.17;;;18.50;99.90;;;;;;5013193;28;20271;-66
2021/06/12 01:20:52;;;;;;;13.57;11.83;;;18.50;99.90;;;;;;5011346;28;20196;-67
2021/06/12 01:23:59;;;;;;;15.97;12.27;;;18.40;99.90;;;;;;5012197;28;20287;-66
2021/06/12 01:26:31;;;;;;;15.13;12.07;;;18.50;99.90;;;;;;5004553;28;20564;-66
2021/06/12 01:29:13;;;;;;;15.40;12.13;;;18.40;99.90;;;;;;5012344;28;20168;-67
2021/06/12 01:31:40;;;;;;;20.37;13.53;;;18.30;99.90;;;;;;5016057;28;20190;-66
2021/06/12 01:34:07;;;;;;;14.50;12.00;;;18.30;99.90;;;;;;5031601;28;20190;-66
2021/06/12 01:36:33;;;;;;;20.83;12.10;;;18.40;99.90;;;;;;5025932;28;20191;-66
2021/06/12 01:39:01;;;;;;;13.87;11.30;;;18.50;99.90;;;;;;5011879;28;20547;-67
2021/06/12 01:41:29;;;;;;;16.80;11.70;;;18.60;99.90;;;;;;5015056;28;20233;-67
2021/06/12 01:43:56;;;;;;;15.00;11.87;;;18.70;99.90;;;;;;5031542;28;20675;-67
2021/06/12 01:46:24;;;;;;;15.90;12.40;;;18.90;99.90;;;;;;5015542;28;20190;-67
2021/06/12 01:48:50;;;;;;;16.57;12.60;;;19.00;99.90;;;;;;5011630;28;20719;-66
2021/06/12 01:51:17;;;;;;;16.50;11.13;;;19.00;99.90;;;;;;5025564;28;20302;-66
2021/06/12 01:53:44;;;;;;;17.27;12.60;;;19.00;99.90;;;;;;5030536;28;20194;-67
2021/06/12 01:56:12;;;;;;;17.90;13.57;;;19.10;99.90;;;;;;5030975;28;20194;-67
2021/06/12 01:58:42;;;;;;;17.03;12.70;;;19.20;99.90;;;;;;5031082;28;20183;-66
2021/06/12 02:01:11;;;;;;;16.93;11.73;;;19.30;99.90;;;;;;5011338;28;20203;-66
2021/06/12 02:03:38;;;;;;;15.37;12.57;;;19.30;99.90;;;;;;5011459;28;20545;-66
2021/06/12 02:06:04;;;;;;;19.93;12.07;;;19.30;99.90;;;;;;5033799;28;20242;-66
2021/06/12 02:08:31;;;;;;;15.98;12.50;;;19.30;99.90;;;;;;5036705;28;20313;-71
2021/06/12 02:10:58;;;;;;;15.70;12.53;;;19.50;99.90;;;;;;5037301;28;20168;-69
2021/06/12 02:13:25;;;;;;;16.70;11.63;;;19.60;99.90;;;;;;5037271;28;20191;-70
2021/06/12 02:15:54;;;;;;;18.33;14.40;;;19.70;99.90;;;;;;5034504;28;20184;-70
2021/06/12 02:18:20;;;;;;;16.93;14.17;;;19.70;99.90;;;;;;5016998;28;20183;-72
2021/06/12 02:20:49;;;;;;;17.33;13.57;;;19.70;99.90;;;;;;5017807;28;20692;-71
2021/06/12 02:23:15;;;;;;;20.77;14.17;;;19.70;99.90;;;;;;5035388;28;20278;-71
2021/06/12 02:25:41;;;;;;;20.30;13.80;;;19.60;99.90;;;;;;5037949;28;20202;-68
2021/06/12 02:28:11;;;;;;;18.80;13.10;;;19.70;99.90;;;;;;5020446;28;20184;-69
2021/06/12 02:30:42;;;;;;;21.95;14.40;;;19.80;99.90;;;;;;5017946;28;20233;-70
2021/06/12 02:33:13;;;;;;;24.65;13.80;;;19.80;99.90;;;;;;5035617;28;20188;-69
2021/06/12 02:35:39;;;;;;;21.23;15.83;;;19.90;99.90;;;;;;5036499;28;20531;-71
2021/06/12 02:38:04;;;;;;;20.33;16.63;;;20.00;99.90;;;;;;5020385;28;20168;-69
2021/06/12 02:40:30;;;;;;;22.58;15.68;;;20.00;99.90;;;;;;5032898;28;20180;-72
2021/06/12 02:42:56;;;;;;;18.23;14.47;;;20.00;99.90;;;;;;5016789;28;20550;-71
2021/06/12 02:45:24;;;;;;;20.83;15.50;;;20.00;99.90;;;;;;5016536;28;20172;-71
2021/06/12 02:48:01;;;;;;;21.27;15.57;;;20.00;99.90;;;;;;5017750;28;20259;-70
2021/06/12 02:50:31;;;;;;;23.67;14.63;;;20.00;99.90;;;;;;5033473;28;20171;-71
2021/06/12 02:53:02;;;;;;;22.40;13.80;;;20.00;99.90;;;;;;5037587;28;20202;-71
2021/06/12 02:55:30;;;;;;;21.67;15.23;;;19.90;99.90;;;;;;5035092;28;20192;-70
2021/06/12 02:57:55;;;;;;;22.70;14.73;;;19.90;99.90;;;;;;5023290;28;20260;-69
2021/06/12 03:00:23;;;;;;;20.80;14.43;;;20.00;99.90;;;;;;5019676;28;20226;-70
2021/06/12 03:02:50;;;;;;;24.30;16.30;;;19.90;99.90;;;;;;5027277;28;20216;-69
2021/06/12 03:05:19;;;;;;;21.92;16.05;;;19.90;99.90;;;;;;5026290;28;20183;-68
2021/06/12 03:07:48;;;;;;;21.92;16.27;;;19.80;99.90;;;;;;5034044;28;20547;-69
2021/06/12 03:10:16;;;;;;;24.53;15.77;;;19.60;99.90;;;;;;5024948;28;20646;-70
2021/06/12 03:12:42;;;;;;;21.20;16.83;;;19.60;99.90;;;;;;5031417;28;20551;-70
2021/06/12 03:15:10;;;;;;;22.60;16.97;;;19.50;99.90;;;;;;5028223;28;20183;-70
2021/06/12 03:17:36;;;;;;;20.63;15.87;;;19.60;99.90;;;;;;5019032;28;20222;-69
2021/06/12 03:20:04;;;;;;;22.93;17.30;;;19.70;99.90;;;;;;5017745;28;20214;-69
2021/06/12 03:22:31;;;;;;;22.70;13.80;;;19.70;99.90;;;;;;5017954;28;20553;-70
2021/06/12 03:24:58;;;;;;;22.48;15.43;;;19.70;99.90;;;;;;5019209;28;20176;-70
2021/06/12 03:27:24;;;;;;;22.10;16.43;;;19.70;99.90;;;;;;5019613;28;20168;-72
2021/06/12 03:29:50;;;;;;;26.67;17.00;;;19.70;99.90;;;;;;5019534;28;20187;-69
2021/06/12 03:32:16;;;;;;;20.92;15.15;;;19.70;99.90;;;;;;5018162;28;20199;-70
2021/06/12 03:34:43;;;;;;;20.47;16.37;;;19.70;99.90;;;;;;5024497;28;20290;-68
2021/06/12 03:37:09;;;;;;;20.55;15.75;;;19.70;99.90;;;;;;5037690;28;20179;-71
2021/06/12 03:39:35;;;;;;;20.73;16.03;;;19.60;99.90;;;;;;5032898;28;20206;-72
2021/06/12 03:42:01;;;;;;;23.47;16.40;;;19.50;99.90;;;;;;5017179;28;20196;-70
2021/06/12 03:44:27;;;;;;;24.43;15.27;;;19.50;99.90;;;;;;5014402;28;20184;-65
2021/06/12 03:46:53;;;;;;;23.65;14.65;;;19.50;99.90;;;;;;5013900;28;20185;-65
2021/06/12 03:49:20;;;;;;;26.37;15.03;;;19.60;99.90;;;;;;5022991;28;20238;-65
2021/06/12 03:51:47;;;;;;;19.90;14.00;;;19.70;99.90;;;;;;5033267;28;20271;-65
2021/06/12 03:54:14;;;;;;;23.90;14.37;;;19.60;99.90;;;;;;5025083;28;20180;-65
2021/06/12 03:56:41;;;;;;;16.60;12.93;;;19.50;99.90;;;;;;5013248;28;20206;-65
2021/06/12 03:59:07;;;;;;;18.73;14.57;;;19.50;99.90;;;;;;5019652;28;20637;-65
2021/06/12 04:01:33;;;;;;;24.57;13.87;;;19.50;99.90;;;;;;5031705;28;20664;-65
2021/06/12 04:03:59;;;;;;;21.87;13.13;;;19.50;99.90;;;;;;5027914;28;20294;-65
2021/06/12 04:06:25;;;;;;;26.83;15.27;;;19.60;99.90;;;;;;5013259;28;20215;-65
2021/06/12 04:08:50;;;;;;;28.08;15.63;;;19.60;99.90;;;;;;5016067;28;20195;-65
2021/06/12 04:11:17;;;;;;;22.93;15.07;;;19.60;99.90;;;;;;5031213;28;20195;-65
2021/06/12 04:13:42;;;;;;;23.45;13.32;;;19.60;99.90;;;;;;5028100;28;20348;-65
2021/06/12 04:16:10;;;;;;;21.40;15.37;;;19.60;99.90;;;;;;5032640;28;20211;-65
2021/06/12 04:18:36;;;;;;;21.73;15.00;;;19.60;99.90;;;;;;5021815;28;20191;-65
2021/06/12 04:21:03;;;;;;;19.83;14.30;;;19.70;99.90;;;;;;5012479;28;20521;-65
2021/06/12 04:23:29;;;;;;;18.73;13.82;;;19.70;99.90;;;;;;5030721;28;20202;-67
2021/06/12 04:25:55;;;;;;;22.77;14.70;;;19.70;99.90;;;;;;5032170;28;20214;-65
2021/06/12 04:28:21;;;;;;;21.17;14.67;;;19.80;99.90;;;;;;5015458;28;20598;-65
2021/06/12 04:30:47;;;;;;;19.10;14.63;;;19.80;99.90;;;;;;5010974;28;20184;-65
2021/06/12 04:33:12;;;;;;;26.90;15.77;;;19.80;99.90;;;;;;5027425;28;20608;-65
2021/06/12 04:35:38;;;;;;;23.70;15.32;;;19.90;99.90;;;;;;5032341;28;20186;-65
2021/06/12 04:38:03;;;;;;;22.53;15.57;;;19.90;99.90;;;;;;5018955;28;20193;-65
2021/06/12 04:40:32;;;;;;;26.48;15.95;;;20.00;99.90;;;;;;5012237;28;20175;-65
2021/06/12 04:42:58;;;;;;;26.88;15.50;;;20.00;99.90;;;;;;5032480;22;20227;-65
2021/06/12 04:45:24;;;;;;;20.55;14.65;;;20.00;99.90;;;;;;4992204;28;20271;-65
2021/06/12 04:47:50;;;;;;;22.27;14.80;;;19.90;99.90;;;;;;5012478;28;20251;-64
2021/06/12 04:50:16;;;;;;;22.73;15.05;;;19.90;99.90;;;;;;5012051;28;20168;-65
2021/06/12 04:52:42;;;;;;;18.92;14.27;;;19.90;99.90;;;;;;4991367;28;20697;-64
2021/06/12 04:55:09;;;;;;;22.07;13.80;;;19.90;99.90;;;;;;4995705;28;20176;-65
2021/06/12 04:57:36;;;;;;;18.45;14.25;;;19.90;99.90;;;;;;5011286;28;20184;-66
2021/06/12 05:00:05;;;;;;;15.83;12.77;;;20.00;99.90;;;;;;5010577;28;20176;-66
2021/06/12 05:02:30;;;;;;;16.50;11.90;;;20.20;99.90;;;;;;5011934;28;20338;-66
2021/06/12 05:04:56;;;;;;;11.27;10.23;;;20.20;99.90;;;;;;5010430;28;20697;-65
2021/06/12 05:07:21;;;;;;;11.97;10.87;;;20.20;99.90;;;;;;5012476;28;20307;-65
2021/06/12 05:09:47;;;;;;;12.95;10.82;;;20.30;99.90;;;;;;5010364;28;20179;-66
2021/06/12 05:12:13;;;;;;;11.52;10.40;;;20.40;99.90;;;;;;4992417;28;20181;-66
2021/06/12 05:14:38;;;;;;;10.32;9.32;;;20.60;99.90;;;;;;4992671;28;20188;-66
2021/06/12 05:17:07;;;;;;;9.43;8.63;;;20.60;99.90;;;;;;5011164;28;20539;-66
2021/06/12 05:19:33;;;;;;;10.27;8.40;;;20.70;99.90;;;;;;4999458;28;20520;-66
2021/06/12 05:22:01;;;;;;;8.75;7.95;;;20.80;99.90;;;;;;4992058;28;20255;-67
2021/06/12 05:24:26;;;;;;;8.50;7.70;;;20.80;99.90;;;;;;5002403;28;20287;-65
2021/06/12 05:26:52;;;;;;;9.88;9.05;;;21.00;99.90;;;;;;5011848;28;20251;-65
2021/06/12 05:29:18;;;;;;;11.13;9.52;;;21.00;99.90;;;;;;5002869;28;20259;-66
2021/06/12 05:31:43;;;;;;;8.35;7.43;;;21.10;99.90;;;;;;4991921;28;20185;-66
2021/06/12 05:34:09;;;;;;;10.05;8.73;;;21.20;99.90;;;;;;4998973;28;20192;-65
2021/06/12 05:36:34;;;;;;;8.88;8.02;;;21.20;99.90;;;;;;5012010;28;20191;-66
2021/06/12 05:39:00;;;;;;;8.80;7.90;;;21.40;99.90;;;;;;5009846;28;20187;-63
2021/06/12 05:41:26;;;;;;;8.88;7.90;;;21.60;99.90;;;;;;4995738;28;20843;-64
2021/06/12 05:43:51;;;;;;;8.60;7.80;;;21.50;99.90;;;;;;5001329;28;20220;-64
2021/06/12 05:46:17;;;;;;;8.50;7.70;;;21.70;99.90;;;;;;5002598;28;20257;-64
2021/06/12 05:48:43;;;;;;;7.80;7.20;;;21.80;99.90;;;;;;5015486;28;20255;-66
2021/06/12 05:51:08;;;;;;;8.02;6.47;;;22.00;99.90;;;;;;5009880;28;20180;-64
2021/06/12 05:53:34;;;;;;;6.60;6.00;;;22.20;99.90;;;;;;4995638;28;20205;-65
2021/06/12 05:56:00;;;;;;;5.75;5.20;;;22.40;99.90;;;;;;4999109;28;20168;-64
2021/06/12 05:58:25;;;;;;;7.22;6.53;;;22.60;99.90;;;;;;5015114;28;20255;-64
2021/06/12 06:00:51;;;;;;;6.20;5.70;;;22.30;99.90;;;;;;5005830;28;20172;-66
2021/06/12 06:03:17;;;;;;;6.28;5.78;;;22.20;99.90;;;;;;5015162;28;20333;-66
2021/06/12 06:05:42;;;;;;;5.65;5.32;;;22.10;99.90;;;;;;5013581;28;20366;-65
2021/06/12 06:08:08;;;;;;;6.03;5.63;;;22.40;99.90;;;;;;5015241;28;20665;-64
2021/06/12 06:10:34;;;;;;;6.55;5.90;;;22.80;99.90;;;;;;5000589;28;20177;-65
2021/06/12 06:13:03;;;;;;;6.03;5.53;;;23.20;99.90;;;;;;4995211;28;20189;-65
2021/06/12 06:15:29;;;;;;;5.80;5.30;;;22.80;99.90;;;;;;5007635;28;20176;-64
2021/06/12 06:17:54;;;;;;;5.45;5.00;;;22.10;99.90;;;;;;5015084;28;20206;-64
2021/06/12 06:20:20;;;;;;;5.85;5.55;;;21.90;99.90;;;;;;5003579;28;20234;-66
2021/06/12 06:22:46;;;;;;;5.82;5.32;;;22.20;99.90;;;;;;4995203;28;20215;-65
2021/06/12 06:25:12;;;;;;;5.43;5.13;;;22.40;99.90;;;;;;4996080;28;20173;-64
2021/06/12 06:27:38;;;;;;;5.97;5.57;;;22.50;99.90;;;;;;4995072;28;20252;-63
2021/06/12 06:30:05;;;;;;;6.47;5.97;;;22.20;99.90;;;;;;4997437;28;20730;-64
2021/06/12 06:32:31;;;;;;;7.03;6.43;;;21.80;99.90;;;;;;4994916;28;20674;-65
2021/06/12 06:34:56;;;;;;;6.32;5.90;;;21.10;99.90;;;;;;5006932;28;20184;-64
2021/06/12 06:37:22;;;;;;;6.55;6.00;;;21.00;99.90;;;;;;5014605;28;20172;-64
2021/06/12 06:39:48;;;;;;;8.05;7.50;;;20.80;99.90;;;;;;5002155;28;20192;-64
2021/06/12 06:42:13;;;;;;;6.70;6.18;;;20.60;99.90;;;;;;4994872;28;20608;-64
2021/06/12 06:44:39;;;;;;;6.47;5.97;;;20.70;99.90;;;;;;5005186;28;20193;-65
2021/06/12 06:47:06;;;;;;;5.50;5.20;;;21.20;99.90;;;;;;5014338;28;20684;-65
2021/06/12 06:49:33;;;;;;;6.50;6.00;;;21.70;99.90;;;;;;5004948;28;20177;-66
2021/06/12 06:51:58;;;;;;;6.93;6.30;;;21.80;99.90;;;;;;4994513;28;20187;-65
2021/06/12 06:54:24;;;;;;;6.63;6.03;;;21.60;99.90;;;;;;5003727;28;20371;-67
2021/06/12 06:56:50;;;;;;;7.25;6.70;;;21.50;99.90;;;;;;5013006;28;20176;-66
2021/06/12 06:59:16;;;;;;;7.00;6.43;;;21.20;99.90;;;;;;5009591;28;20620;-66
2021/06/12 07:01:42;;;;;;;8.23;6.90;;;21.00;99.90;;;;;;5013689;28;20192;-66
2021/06/12 07:04:07;;;;;;;7.45;6.85;;;21.20;99.90;;;;;;5012357;28;20692;-64
2021/06/12 07:06:33;;;;;;;8.10;7.45;;;21.30;99.90;;;;;;5013762;28;20175;-64
2021/06/12 07:08:59;;;;;;;6.90;6.25;;;21.50;99.90;;;;;;5009864;28;20184;-65
2021/06/12 07:11:24;;;;;;;6.47;5.97;;;21.70;99.90;;;;;;5013637;28;20590;-65
2021/06/12 07:13:50;;;;;;;6.72;6.22;;;21.90;99.90;;;;;;5005770;28;20209;-66
2021/06/12 07:16:16;;;;;;;7.32;6.75;;;22.30;99.90;;;;;;4994413;28;20185;-65
2021/06/12 07:18:41;;;;;;;7.20;6.70;;;22.60;99.90;;;;;;5000156;28;20188;-66
2021/06/12 07:21:07;;;;;;;7.65;6.95;;;22.30;99.90;;;;;;5013325;28;20184;-66
2021/06/12 07:23:32;;;;;;;8.40;7.70;;;22.40;99.90;;;;;;5009129;28;20212;-66
2021/06/12 07:25:58;;;;;;;9.75;8.75;;;22.30;99.90;;;;;;4994151;28;20164;-67
2021/06/12 07:28:24;;;;;;;7.47;6.88;;;22.00;99.90;;;;;;5004708;28;20176;-64
2021/06/12 07:30:49;;;;;;;9.43;8.63;;;21.90;99.90;;;;;;5013208;28;20172;-63
2021/06/12 07:33:15;;;;;;;9.45;8.82;;;22.00;99.90;;;;;;5004168;28;20196;-66
2021/06/12 07:35:42;;;;;;;7.90;7.22;;;21.80;99.90;;;;;;4993793;28;20220;-67
2021/06/12 07:38:08;;;;;;;9.52;8.63;;;21.60;99.90;;;;;;5000968;28;20283;-64
2021/06/12 07:40:34;;;;;;;10.23;9.32;;;21.70;99.90;;;;;;5009064;28;20634;-64
2021/06/12 07:43:00;;;;;;;12.17;10.93;;;21.10;99.90;;;;;;4996836;28;20627;-65
2021/06/12 07:45:26;;;;;;;10.48;9.68;;;20.80;99.90;;;;;;5000844;28;20175;-66
2021/06/12 07:47:51;;;;;;;12.75;11.82;;;20.70;99.90;;;;;;5012085;28;20180;-66
2021/06/12 07:50:18;;;;;;;12.07;11.07;;;20.80;99.90;;;;;;5010116;28;20175;-66
2021/06/12 07:52:44;;;;;;;10.55;9.55;;;20.80;99.90;;;;;;5013220;28;20195;-65
2021/06/12 07:55:11;;;;;;;10.38;9.50;;;21.10;99.90;;;;;;5009029;28;20538;-65
2021/06/12 07:57:36;;;;;;;11.70;10.00;;;21.20;99.90;;;;;;4993539;28;20579;-65
2021/06/12 08:00:04;;;;;;;11.65;10.55;;;21.30;99.90;;;;;;4995949;28;20181;-66
2021/06/12 08:02:30;;;;;;;10.45;9.57;;;21.10;99.90;;;;;;5001502;28;20278;-66
2021/06/12 08:04:56;;;;;;;12.38;11.27;;;21.00;99.90;;;;;;5009203;28;20176;-66
2021/06/12 08:07:22;;;;;;;10.52;9.68;;;20.90;99.90;;;;;;5000760;28;20227;-65
2021/06/12 08:09:50;;;;;;;11.77;10.63;;;20.70;99.90;;;;;;4993975;28;20515;-66
2021/06/12 08:12:16;;;;;;;11.23;10.32;;;20.90;99.90;;;;;;5005793;28;20192;-66
2021/06/12 08:14:42;;;;;;;9.85;9.05;;;21.20;99.90;;;;;;4995297;28;20650;-64
2021/06/12 08:17:08;;;;;;;10.00;9.20;;;21.60;99.90;;;;;;5004306;28;20723;-65
2021/06/12 08:19:35;;;;;;;10.38;9.45;;;21.70;99.90;;;;;;5010135;28;20172;-64
2021/06/12 08:22:01;;;;;;;11.70;10.70;;;21.60;99.90;;;;;;5000592;28;20886;-64
2021/06/12 08:24:26;;;;;;;11.63;10.60;;;21.30;99.90;;;;;;4994313;28;20197;-64
2021/06/12 08:26:52;;;;;;;11.45;10.45;;;20.90;99.90;;;;;;5001436;28;20180;-65
2021/06/12 08:29:18;;;;;;;12.37;11.37;;;20.90;99.90;;;;;;4998217;28;20173;-65
2021/06/12 08:31:43;;;;;;;11.15;10.25;;;20.80;99.90;;;;;;5012075;28;20180;-65
2021/06/12 08:34:09;;;;;;;12.63;11.45;;;20.80;99.90;;;;;;5002564;28;20193;-65
2021/06/12 08:36:35;;;;;;;11.73;10.60;;;20.70;99.90;;;;;;4992274;28;20203;-65
2021/06/12 08:39:00;;;;;;;13.35;12.05;;;20.60;99.90;;;;;;5005862;28;20211;-65
2021/06/12 08:41:26;;;;;;;13.63;12.45;;;20.60;99.90;;;;;;5000860;28;20291;-65
2021/06/12 08:43:57;;;;;;;13.95;12.75;;;20.40;99.90;;;;;;4992502;28;20635;-64
2021/06/12 08:46:28;;;;;;;13.75;12.70;;;20.30;99.90;;;;;;5002892;28;20259;-66
2021/06/12 08:48:54;;;;;;;12.73;11.53;;;20.30;99.90;;;;;;5004124;28;20255;-64
2021/06/12 08:51:20;;;;;;;13.17;11.20;;;20.20;99.90;;;;;;5006891;28;20177;-64
2021/06/12 08:53:47;;;;;;;16.20;14.73;;;20.10;99.90;;;;;;5002767;28;20192;-64
2021/06/12 08:56:13;;;;;;;14.50;13.13;;;19.90;99.90;;;;;;4991537;28;20252;-66
2021/06/12 08:58:39;;;;;;;17.97;16.47;;;19.90;99.90;;;;;;5003699;28;20356;-64
2021/06/12 09:01:05;;;;;;;15.50;14.00;;;19.80;99.90;;;;;;5001040;28;20544;-64
2021/06/12 09:03:32;;;;;;;17.17;15.67;;;19.60;99.90;;;;;;4992180;28;20629;-65
2021/06/12 09:05:59;;;;;;;15.50;14.00;;;19.50;99.90;;;;;;4992409;28;20168;-66
2021/06/12 09:08:29;;;;;;;16.27;14.87;;;19.50;99.90;;;;;;4998037;28;20186;-65
2021/06/12 09:11:08;;;;;;;15.53;14.13;;;19.50;99.90;;;;;;5010067;28;20518;-66
2021/06/12 09:13:51;;;;;;;14.40;12.93;;;19.50;99.90;;;;;;5011325;28;20731;-65
2021/06/12 09:16:40;;;;;;;14.87;13.37;;;19.50;99.90;;;;;;5010467;28;20176;-65
2021/06/12 09:19:17;;;;;;;16.53;14.97;;;19.80;99.90;;;;;;5011732;28;20479;-67
2021/06/12 09:21:49;;;;;;;15.80;14.17;;;19.90;99.90;;;;;;4995758;28;20697;-65
2021/06/12 09:24:29;;;;;;;15.63;14.10;;;19.90;99.90;;;;;;5004277;28;20254;-64
2021/06/12 09:27:16;;;;;;;14.87;13.40;;;19.90;99.90;;;;;;4975347;28;20639;-65
2021/06/12 09:29:52;;;;;;;13.98;12.65;;;20.30;99.90;;;;;;5009327;28;20226;-66
2021/06/12 09:32:29;;;;;;;15.75;14.18;;;20.70;99.90;;;;;;5011594;28;20175;-64
2021/06/12 09:35:03;;;;;;;13.13;11.90;;;20.90;99.90;;;;;;4992036;28;20271;-64
2021/06/12 09:37:29;;;;;;;12.13;11.10;;;21.40;99.90;;;;;;4990827;28;20192;-64
2021/06/12 09:40:11;;;;;;;13.40;12.00;;;21.60;99.90;;;;;;5010542;28;20567;-64
2021/06/12 09:42:48;;;;;;;10.68;9.68;;;22.30;99.90;;;;;;5011105;28;20215;-64
2021/06/12 09:45:20;;;;;;;11.48;10.38;;;23.40;99.90;;;;;;5011494;28;20673;-65
2021/06/12 09:47:45;;;;;;;13.30;12.00;;;23.60;99.90;;;;;;5010695;28;20183;-66
2021/06/12 09:50:13;;;;;;;11.48;10.38;;;23.20;99.90;;;;;;4991740;28;20181;-64
2021/06/12 09:52:45;;;;;;;9.75;8.90;;;23.10;99.90;;;;;;4991773;28;20200;-64
2021/06/12 09:55:23;;;;;;;11.50;10.00;;;22.80;99.90;;;;;;5011199;28;20207;-64
2021/06/12 09:57:50;;;;;;;11.45;10.43;;;22.70;99.90;;;;;;5011094;28;20168;-65
2021/06/12 10:00:16;;;;;;;10.63;9.52;;;22.60;99.90;;;;;;4991581;28;20243;-66
2021/06/12 10:02:44;;;;;;;10.95;10.02;;;22.20;99.90;;;;;;5004025;28;20199;-66
2021/06/12 10:05:15;;;;;;;11.23;10.23;;;22.40;99.90;;;;;;5011252;28;20181;-64
2021/06/12 10:07:41;;;;;;;9.88;8.88;;;22.50;99.90;;;;;;4999924;28;20181;-65
2021/06/12 10:10:11;;;;;;;11.32;10.32;;;22.10;99.90;;;;;;4991569;28;20264;-66
2021/06/12 10:12:37;;;;;;;11.02;9.93;;;22.20;99.90;;;;;;5002020;28;20735;-65
2021/06/12 10:15:05;;;;;;;12.60;11.48;;;22.20;99.90;;;;;;5011344;28;20238;-64
2021/06/12 10:17:38;;;;;;;10.43;9.45;;;22.30;99.90;;;;;;5001682;28;20185;-64
2021/06/12 10:20:05;;;;;;;11.15;10.05;;;22.40;99.90;;;;;;4991524;28;20507;-64
2021/06/12 10:22:31;;;;;;;13.90;12.60;;;22.40;99.90;;;;;;5006270;28;20200;-64
2021/06/12 10:24:57;;;;;;;11.80;10.52;;;22.20;99.90;;;;;;5012383;28;20219;-65
2021/06/12 10:27:23;;;;;;;11.25;10.32;;;22.50;99.90;;;;;;5000989;28;20176;-65
2021/06/12 10:29:49;;;;;;;11.10;9.95;;;23.00;99.90;;;;;;4994764;28;20177;-66
2021/06/12 10:32:16;;;;;;;10.85;9.75;;;23.10;99.90;;;;;;5007106;28;20172;-64
2021/06/12 10:34:43;;;;;;;11.75;10.65;;;22.90;99.90;;;;;;4993589;28;20193;-64
2021/06/12 10:37:12;;;;;;;11.65;10.48;;;23.10;99.90;;;;;;5005232;28;20626;-65
2021/06/12 10:39:40;;;;;;;12.82;11.25;;;22.90;99.90;;;;;;5014465;28;20188;-66
2021/06/12 10:42:10;;;;;;;12.75;11.25;;;22.60;99.90;;;;;;5002895;28;20248;-65
2021/06/12 10:44:36;;;;;;;11.45;10.35;;;22.40;99.90;;;;;;5085063;22;20223;-65
2021/06/12 10:47:02;;;;;;;11.52;10.40;;;22.20;99.90;;;;;;5025392;28;20176;-64
2021/06/12 10:49:31;;;;;;;12.43;11.23;;;21.90;99.90;;;;;;5014482;28;20579;-65
2021/06/12 10:51:57;;;;;;;12.10;11.00;;;21.60;99.90;;;;;;5023841;28;20184;-65
2021/06/12 10:54:24;;;;;;;11.85;10.60;;;21.70;99.90;;;;;;5048507;28;20190;-64
2021/06/12 10:57:02;;;;;;;13.10;10.45;;;22.00;99.90;;;;;;5034220;28;20180;-65
2021/06/12 10:59:40;;;;;;;11.40;10.27;;;22.20;99.90;;;;;;5034848;28;20594;-64
2021/06/12 11:04:46;;;;;;;13.82;12.43;;;21.80;99.90;;;;;;5036580;28;20194;-64
2021/06/12 11:07:33;;;;;;;14.40;12.00;;;21.40;99.90;;;;;;5050406;28;20180;-64
2021/06/12 11:10:18;;;;;;;13.38;12.05;;;21.50;99.90;;;;;;5038245;28;20178;-65
2021/06/12 11:12:54;;;;;;;13.77;11.43;;;22.20;99.90;;;;;;5053606;28;20166;-65
2021/06/12 11:15:22;;;;;;;13.18;11.75;;;23.10;99.90;;;;;;5045186;28;20179;-65
2021/06/12 11:18:10;;;;;;;13.15;11.63;;;23.80;99.90;;;;;;5040765;28;20207;-65
2021/06/12 11:20:37;;;;;;;12.15;10.35;;;24.20;99.90;;;;;;5044261;28;20180;-64
2021/06/12 11:23:04;;;;;;;13.25;11.85;;;24.30;99.90;;;;;;5031742;28;20222;-65
2021/06/12 11:25:29;;;;;;;13.35;10.85;;;24.00;99.90;;;;;;5034597;28;20175;-65
2021/06/12 11:28:25;;;;;;;15.20;12.35;;;24.30;99.90;;;;;;5033519;28;20163;-65
2021/06/12 11:30:53;;;;;;;13.52;12.23;;;24.60;99.90;;;;;;5043040;28;20179;-65
2021/06/12 11:33:21;;;;;;;12.30;11.05;;;25.10;99.90;;;;;;5053082;28;20199;-65
2021/06/12 11:35:49;;;;;;;14.48;12.07;;;25.00;99.90;;;;;;5051471;28;20193;-65
2021/06/12 11:38:16;;;;;;;13.57;11.25;;;25.00;99.90;;;;;;5053346;28;20205;-65
2021/06/12 11:41:04;;;;;;;12.95;10.85;;;24.80;99.90;;;;;;5045389;28;20287;-65
2021/06/12 11:43:35;;;;;;;12.75;11.45;;;24.80;99.90;;;;;;5031697;28;20587;-65
2021/06/12 11:46:22;;;;;;;11.68;10.57;;;25.00;99.90;;;;;;5042377;28;20175;-65
2021/06/12 11:48:50;;;;;;;11.95;10.60;;;25.20;99.90;;;;;;5040225;28;20180;-65
2021/06/12 11:51:42;;;;;;;11.63;10.40;;;25.50;99.90;;;;;;5043590;28;20175;-65
2021/06/12 11:54:13;;;;;;;13.10;11.75;;;25.30;99.90;;;;;;5034132;28;20283;-65
2021/06/12 11:56:53;;;;;;;11.75;10.50;;;25.00;99.90;;;;;;5032869;28;20171;-65
2021/06/12 11:59:21;;;;;;;13.27;11.52;;;24.90;99.90;;;;;;5037463;28;20183;-65
2021/06/12 12:01:57;;;;;;;12.15;10.70;;;24.40;99.90;;;;;;5051424;28;20624;-65
2021/06/12 12:04:23;;;;;;;12.90;11.55;;;24.60;99.90;;;;;;5052619;28;20272;-65
2021/06/12 12:06:54;;;;;;;12.32;11.02;;;24.80;99.90;;;;;;5052859;28;20174;-65
2021/06/12 12:09:44;;;;;;;12.90;11.18;;;24.60;99.90;;;;;;5051812;28;20249;-65
2021/06/12 12:12:14;;;;;;;12.48;10.80;;;24.90;99.90;;;;;;5052748;28;20206;-65
2021/06/12 12:14:42;;;;;;;12.30;11.10;;;25.40;99.90;;;;;;5052514;28;20672;-65
2021/06/12 12:17:19;;;;;;;12.60;11.40;;;25.80;99.90;;;;;;5052610;28;20182;-65
2021/06/12 12:19:44;;;;;;;13.30;10.82;;;26.30;99.90;;;;;;5052386;28;20177;-65
2021/06/12 12:22:10;;;;;;;11.10;10.00;;;26.10;99.90;;;;;;5052453;28;20574;-65
2021/06/12 12:24:36;;;;;;;12.20;9.88;;;26.10;99.90;;;;;;5052412;28;20652;-66
2021/06/12 12:27:08;;;;;;;11.88;10.05;;;26.00;99.90;;;;;;5052526;28;20163;-66
2021/06/12 12:29:38;;;;;;;12.20;10.93;;;25.60;99.90;;;;;;5052324;28;20167;-65
2021/06/12 12:32:04;;;;;;;12.13;10.80;;;25.30;99.90;;;;;;5052404;28;20202;-66
2021/06/12 12:34:39;;;;;;;11.45;10.23;;;24.10;99.90;;;;;;5052024;28;20275;-65
2021/06/12 12:37:07;;;;;;;11.25;10.02;;;23.40;99.90;;;;;;5052309;28;20216;-65
2021/06/12 12:39:44;;;;;;;12.38;10.55;;;23.00;99.90;;;;;;5052083;28;20171;-66